sensor_id;sensor_type;location;lat;lon;timestamp;P1;durP1;ratioP1;P2;durP2;ratioP2
58528;SDS011;44322;52.968;5.816;2024-01-10T00:01:33;19.63;;;14.88;;
58528;SDS011;44322;52.968;5.816;2024-01-10T00:03:59;17.80;;;14.05;;
58528;SDS011;44322;52.968;5.816;2024-01-10T00:06:24;19.45;;;15.20;;
58528;SDS011;44322;52.968;5.816;2024-01-10T00:08:50;17.90;;;14.10;;
58528;SDS011;44322;52.968;5.816;2024-01-10T00:11:16;18.58;;;14.35;;
58528;SDS011;44322;52.968;5.816;2024-01-10T00:13:41;17.15;;;14.10;;
58528;SDS011;44322;52.968;5.816;2024-01-10T00:16:07;19.45;;;14.43;;
58528;SDS011;44322;52.968;5.816;2024-01-10T00:18:33;17.35;;;14.02;;
58528;SDS011;44322;52.968;5.816;2024-01-10T00:20:59;18.75;;;14.43;;
58528;SDS011;44322;52.968;5.816;2024-01-10T00:23:25;16.38;;;13.20;;
58528;SDS011;44322;52.968;5.816;2024-01-10T00:25:50;16.80;;;13.68;;
58528;SDS011;44322;52.968;5.816;2024-01-10T00:28:16;17.92;;;14.43;;
58528;SDS011;44322;52.968;5.816;2024-01-10T00:30:43;17.58;;;13.40;;
58528;SDS011;44322;52.968;5.816;2024-01-10T00:33:10;18.98;;;14.60;;
58528;SDS011;44322;52.968;5.816;2024-01-10T00:35:36;18.38;;;14.35;;
58528;SDS011;44322;52.968;5.816;2024-01-10T00:38:02;18.35;;;14.10;;
58528;SDS011;44322;52.968;5.816;2024-01-10T00:40:28;17.88;;;13.77;;
58528;SDS011;44322;52.968;5.816;2024-01-10T00:42:54;17.02;;;13.05;;
58528;SDS011;44322;52.968;5.816;2024-01-10T00:45:19;17.45;;;13.45;;
58528;SDS011;44322;52.968;5.816;2024-01-10T00:47:45;17.65;;;13.68;;
58528;SDS011;44322;52.968;5.816;2024-01-10T00:50:13;18.60;;;14.02;;
58528;SDS011;44322;52.968;5.816;2024-01-10T00:52:39;17.83;;;14.00;;
58528;SDS011;44322;52.968;5.816;2024-01-10T00:55:04;17.40;;;14.07;;
58528;SDS011;44322;52.968;5.816;2024-01-10T00:57:30;18.35;;;14.35;;
58528;SDS011;44322;52.968;5.816;2024-01-10T00:59:56;17.83;;;14.18;;
58528;SDS011;44322;52.968;5.816;2024-01-10T01:02:21;16.48;;;13.18;;
58528;SDS011;44322;52.968;5.816;2024-01-10T01:04:47;16.90;;;14.15;;
58528;SDS011;44322;52.968;5.816;2024-01-10T01:07:13;16.23;;;13.35;;
58528;SDS011;44322;52.968;5.816;2024-01-10T01:09:38;19.08;;;14.75;;
58528;SDS011;44322;52.968;5.816;2024-01-10T01:12:04;18.77;;;14.27;;
58528;SDS011;44322;52.968;5.816;2024-01-10T01:14:30;20.65;;;14.88;;
58528;SDS011;44322;52.968;5.816;2024-01-10T01:16:55;18.95;;;14.25;;
58528;SDS011;44322;52.968;5.816;2024-01-10T01:19:21;19.98;;;15.23;;
58528;SDS011;44322;52.968;5.816;2024-01-10T01:21:46;17.83;;;14.82;;
58528;SDS011;44322;52.968;5.816;2024-01-10T01:24:12;19.15;;;14.73;;
58528;SDS011;44322;52.968;5.816;2024-01-10T01:26:38;20.25;;;15.23;;
58528;SDS011;44322;52.968;5.816;2024-01-10T01:29:03;19.20;;;15.50;;
58528;SDS011;44322;52.968;5.816;2024-01-10T01:31:29;18.38;;;14.88;;
58528;SDS011;44322;52.968;5.816;2024-01-10T01:33:55;18.58;;;15.43;;
58528;SDS011;44322;52.968;5.816;2024-01-10T01:36:20;20.55;;;15.98;;
58528;SDS011;44322;52.968;5.816;2024-01-10T01:38:46;18.73;;;15.32;;
58528;SDS011;44322;52.968;5.816;2024-01-10T01:41:11;20.05;;;15.40;;
58528;SDS011;44322;52.968;5.816;2024-01-10T01:43:39;20.13;;;15.73;;
58528;SDS011;44322;52.968;5.816;2024-01-10T01:46:06;20.45;;;15.80;;
58528;SDS011;44322;52.968;5.816;2024-01-10T01:48:33;20.90;;;15.30;;
58528;SDS011;44322;52.968;5.816;2024-01-10T01:51:02;21.30;;;16.38;;
58528;SDS011;44322;52.968;5.816;2024-01-10T01:53:31;20.35;;;15.70;;
58528;SDS011;44322;52.968;5.816;2024-01-10T01:55:57;19.75;;;16.08;;
58528;SDS011;44322;52.968;5.816;2024-01-10T01:58:24;22.58;;;17.55;;
58528;SDS011;44322;52.968;5.816;2024-01-10T02:00:49;21.35;;;16.88;;
58528;SDS011;44322;52.968;5.816;2024-01-10T02:03:15;20.25;;;16.52;;
58528;SDS011;44322;52.968;5.816;2024-01-10T02:05:41;20.65;;;16.50;;
58528;SDS011;44322;52.968;5.816;2024-01-10T02:08:08;21.92;;;17.00;;
58528;SDS011;44322;52.968;5.816;2024-01-10T02:10:34;20.45;;;16.90;;
58528;SDS011;44322;52.968;5.816;2024-01-10T02:13:00;21.88;;;17.27;;
58528;SDS011;44322;52.968;5.816;2024-01-10T02:15:26;23.60;;;18.15;;
58528;SDS011;44322;52.968;5.816;2024-01-10T02:17:51;23.38;;;18.75;;
58528;SDS011;44322;52.968;5.816;2024-01-10T02:20:17;23.02;;;18.60;;
58528;SDS011;44322;52.968;5.816;2024-01-10T02:22:43;23.60;;;19.13;;
58528;SDS011;44322;52.968;5.816;2024-01-10T02:25:10;23.75;;;18.65;;
58528;SDS011;44322;52.968;5.816;2024-01-10T02:27:47;25.05;;;19.70;;
58528;SDS011;44322;52.968;5.816;2024-01-10T02:30:13;23.45;;;19.75;;
58528;SDS011;44322;52.968;5.816;2024-01-10T02:32:39;25.98;;;20.30;;
58528;SDS011;44322;52.968;5.816;2024-01-10T02:35:05;25.50;;;20.65;;
58528;SDS011;44322;52.968;5.816;2024-01-10T02:37:31;26.90;;;21.73;;
58528;SDS011;44322;52.968;5.816;2024-01-10T02:39:57;25.40;;;20.05;;
58528;SDS011;44322;52.968;5.816;2024-01-10T02:42:22;28.70;;;21.15;;
58528;SDS011;44322;52.968;5.816;2024-01-10T02:44:48;26.00;;;21.25;;
58528;SDS011;44322;52.968;5.816;2024-01-10T02:47:14;25.73;;;20.60;;
58528;SDS011;44322;52.968;5.816;2024-01-10T02:49:39;26.95;;;21.63;;
58528;SDS011;44322;52.968;5.816;2024-01-10T02:52:05;26.83;;;21.33;;
58528;SDS011;44322;52.968;5.816;2024-01-10T02:54:31;25.85;;;20.95;;
58528;SDS011;44322;52.968;5.816;2024-01-10T02:56:57;26.60;;;20.92;;
58528;SDS011;44322;52.968;5.816;2024-01-10T02:59:22;25.65;;;20.17;;
58528;SDS011;44322;52.968;5.816;2024-01-10T03:01:48;25.02;;;20.27;;
58528;SDS011;44322;52.968;5.816;2024-01-10T03:04:14;24.98;;;20.48;;
58528;SDS011;44322;52.968;5.816;2024-01-10T03:06:39;25.60;;;21.13;;
58528;SDS011;44322;52.968;5.816;2024-01-10T03:09:05;27.35;;;21.02;;
58528;SDS011;44322;52.968;5.816;2024-01-10T03:11:31;27.58;;;20.25;;
58528;SDS011;44322;52.968;5.816;2024-01-10T03:14:03;25.55;;;19.88;;
58528;SDS011;44322;52.968;5.816;2024-01-10T03:16:30;27.92;;;21.10;;
58528;SDS011;44322;52.968;5.816;2024-01-10T03:18:55;28.13;;;20.80;;
58528;SDS011;44322;52.968;5.816;2024-01-10T03:21:21;26.95;;;21.20;;
58528;SDS011;44322;52.968;5.816;2024-01-10T03:24:00;26.73;;;20.73;;
58528;SDS011;44322;52.968;5.816;2024-01-10T03:26:26;26.17;;;20.15;;
58528;SDS011;44322;52.968;5.816;2024-01-10T03:28:53;25.63;;;20.37;;
58528;SDS011;44322;52.968;5.816;2024-01-10T03:31:19;26.63;;;19.52;;
58528;SDS011;44322;52.968;5.816;2024-01-10T03:33:45;25.48;;;19.60;;
58528;SDS011;44322;52.968;5.816;2024-01-10T03:36:12;24.73;;;19.63;;
58528;SDS011;44322;52.968;5.816;2024-01-10T03:38:41;24.83;;;19.80;;
58528;SDS011;44322;52.968;5.816;2024-01-10T03:41:07;24.85;;;19.58;;
58528;SDS011;44322;52.968;5.816;2024-01-10T03:43:33;23.25;;;18.25;;
58528;SDS011;44322;52.968;5.816;2024-01-10T03:45:58;23.98;;;18.40;;
58528;SDS011;44322;52.968;5.816;2024-01-10T03:48:24;22.92;;;18.67;;
58528;SDS011;44322;52.968;5.816;2024-01-10T03:50:49;24.77;;;18.98;;
58528;SDS011;44322;52.968;5.816;2024-01-10T03:53:15;22.98;;;18.08;;
58528;SDS011;44322;52.968;5.816;2024-01-10T03:55:41;23.00;;;17.80;;
58528;SDS011;44322;52.968;5.816;2024-01-10T03:58:07;22.88;;;18.58;;
58528;SDS011;44322;52.968;5.816;2024-01-10T04:00:32;24.25;;;19.08;;
58528;SDS011;44322;52.968;5.816;2024-01-10T04:02:58;23.55;;;18.17;;
58528;SDS011;44322;52.968;5.816;2024-01-10T04:05:24;21.58;;;17.17;;
58528;SDS011;44322;52.968;5.816;2024-01-10T04:07:50;22.98;;;17.23;;
58528;SDS011;44322;52.968;5.816;2024-01-10T04:10:17;21.00;;;17.38;;
58528;SDS011;44322;52.968;5.816;2024-01-10T04:12:43;20.73;;;17.50;;
58528;SDS011;44322;52.968;5.816;2024-01-10T04:15:09;20.55;;;16.30;;
58528;SDS011;44322;52.968;5.816;2024-01-10T04:17:35;21.98;;;16.60;;
58528;SDS011;44322;52.968;5.816;2024-01-10T04:20:01;20.58;;;16.42;;
58528;SDS011;44322;52.968;5.816;2024-01-10T04:22:27;21.27;;;16.58;;
58528;SDS011;44322;52.968;5.816;2024-01-10T04:24:52;20.95;;;16.25;;
58528;SDS011;44322;52.968;5.816;2024-01-10T04:27:18;22.05;;;16.83;;
58528;SDS011;44322;52.968;5.816;2024-01-10T04:29:44;19.60;;;15.75;;
58528;SDS011;44322;52.968;5.816;2024-01-10T04:32:10;20.23;;;15.85;;
58528;SDS011;44322;52.968;5.816;2024-01-10T04:34:35;21.25;;;16.25;;
58528;SDS011;44322;52.968;5.816;2024-01-10T04:37:01;22.40;;;16.67;;
58528;SDS011;44322;52.968;5.816;2024-01-10T04:39:27;19.13;;;15.93;;
58528;SDS011;44322;52.968;5.816;2024-01-10T04:41:52;18.90;;;15.45;;
58528;SDS011;44322;52.968;5.816;2024-01-10T04:44:18;18.63;;;15.43;;
58528;SDS011;44322;52.968;5.816;2024-01-10T04:46:44;22.33;;;16.05;;
58528;SDS011;44322;52.968;5.816;2024-01-10T04:49:09;19.65;;;16.27;;
58528;SDS011;44322;52.968;5.816;2024-01-10T04:51:35;20.00;;;16.17;;
58528;SDS011;44322;52.968;5.816;2024-01-10T04:54:00;20.38;;;16.02;;
58528;SDS011;44322;52.968;5.816;2024-01-10T04:56:26;21.35;;;16.45;;
58528;SDS011;44322;52.968;5.816;2024-01-10T04:58:51;20.67;;;15.85;;
58528;SDS011;44322;52.968;5.816;2024-01-10T05:01:17;18.23;;;15.10;;
58528;SDS011;44322;52.968;5.816;2024-01-10T05:03:43;17.83;;;14.52;;
58528;SDS011;44322;52.968;5.816;2024-01-10T05:06:09;21.75;;;16.55;;
58528;SDS011;44322;52.968;5.816;2024-01-10T05:08:34;18.13;;;15.52;;
58528;SDS011;44322;52.968;5.816;2024-01-10T05:11:00;17.88;;;15.00;;
58528;SDS011;44322;52.968;5.816;2024-01-10T05:13:25;18.48;;;14.60;;
58528;SDS011;44322;52.968;5.816;2024-01-10T05:15:51;20.33;;;15.40;;
58528;SDS011;44322;52.968;5.816;2024-01-10T05:18:17;20.40;;;15.93;;
58528;SDS011;44322;52.968;5.816;2024-01-10T05:20:43;19.55;;;15.10;;
58528;SDS011;44322;52.968;5.816;2024-01-10T05:23:09;20.70;;;15.32;;
58528;SDS011;44322;52.968;5.816;2024-01-10T05:25:35;21.05;;;16.65;;
58528;SDS011;44322;52.968;5.816;2024-01-10T05:28:01;20.42;;;16.38;;
58528;SDS011;44322;52.968;5.816;2024-01-10T05:30:27;20.98;;;16.13;;
58528;SDS011;44322;52.968;5.816;2024-01-10T05:32:53;22.25;;;16.25;;
58528;SDS011;44322;52.968;5.816;2024-01-10T05:35:18;20.45;;;16.65;;
58528;SDS011;44322;52.968;5.816;2024-01-10T05:37:44;19.77;;;16.73;;
58528;SDS011;44322;52.968;5.816;2024-01-10T05:40:10;20.15;;;16.27;;
58528;SDS011;44322;52.968;5.816;2024-01-10T05:42:35;21.25;;;16.58;;
58528;SDS011;44322;52.968;5.816;2024-01-10T05:45:03;22.35;;;16.85;;
58528;SDS011;44322;52.968;5.816;2024-01-10T05:47:29;21.63;;;16.55;;
58528;SDS011;44322;52.968;5.816;2024-01-10T05:49:55;21.65;;;16.77;;
58528;SDS011;44322;52.968;5.816;2024-01-10T05:52:21;20.10;;;16.13;;
58528;SDS011;44322;52.968;5.816;2024-01-10T05:54:47;19.65;;;15.80;;
58528;SDS011;44322;52.968;5.816;2024-01-10T05:57:13;19.10;;;15.75;;
58528;SDS011;44322;52.968;5.816;2024-01-10T05:59:40;18.65;;;15.93;;
58528;SDS011;44322;52.968;5.816;2024-01-10T06:02:05;19.33;;;15.63;;
58528;SDS011;44322;52.968;5.816;2024-01-10T06:04:31;20.38;;;16.25;;
58528;SDS011;44322;52.968;5.816;2024-01-10T06:06:59;19.38;;;15.40;;
58528;SDS011;44322;52.968;5.816;2024-01-10T06:09:25;20.30;;;15.82;;
58528;SDS011;44322;52.968;5.816;2024-01-10T06:11:51;18.83;;;14.55;;
58528;SDS011;44322;52.968;5.816;2024-01-10T06:14:17;21.50;;;15.25;;
58528;SDS011;44322;52.968;5.816;2024-01-10T06:16:43;20.23;;;16.00;;
58528;SDS011;44322;52.968;5.816;2024-01-10T06:19:12;20.55;;;16.48;;
58528;SDS011;44322;52.968;5.816;2024-01-10T06:21:38;19.95;;;14.82;;
58528;SDS011;44322;52.968;5.816;2024-01-10T06:24:04;20.00;;;15.40;;
58528;SDS011;44322;52.968;5.816;2024-01-10T06:26:30;18.63;;;15.10;;
58528;SDS011;44322;52.968;5.816;2024-01-10T06:28:56;19.60;;;15.35;;
58528;SDS011;44322;52.968;5.816;2024-01-10T06:31:21;20.00;;;15.95;;
58528;SDS011;44322;52.968;5.816;2024-01-10T06:33:47;19.00;;;15.20;;
58528;SDS011;44322;52.968;5.816;2024-01-10T06:36:13;18.15;;;14.80;;
58528;SDS011;44322;52.968;5.816;2024-01-10T06:38:39;20.65;;;15.15;;
58528;SDS011;44322;52.968;5.816;2024-01-10T06:41:08;17.52;;;14.85;;
58528;SDS011;44322;52.968;5.816;2024-01-10T06:43:34;18.15;;;14.35;;
58528;SDS011;44322;52.968;5.816;2024-01-10T06:46:01;17.88;;;14.90;;
58528;SDS011;44322;52.968;5.816;2024-01-10T06:48:28;19.90;;;15.15;;
58528;SDS011;44322;52.968;5.816;2024-01-10T06:50:54;18.52;;;15.40;;
58528;SDS011;44322;52.968;5.816;2024-01-10T06:53:21;20.55;;;14.80;;
58528;SDS011;44322;52.968;5.816;2024-01-10T06:55:47;18.50;;;14.70;;
58528;SDS011;44322;52.968;5.816;2024-01-10T06:58:12;16.98;;;14.32;;
58528;SDS011;44322;52.968;5.816;2024-01-10T07:00:38;18.58;;;15.00;;
58528;SDS011;44322;52.968;5.816;2024-01-10T07:03:04;16.70;;;14.18;;
58528;SDS011;44322;52.968;5.816;2024-01-10T07:05:29;19.45;;;14.80;;
58528;SDS011;44322;52.968;5.816;2024-01-10T07:07:57;18.40;;;14.75;;
58528;SDS011;44322;52.968;5.816;2024-01-10T07:10:23;20.60;;;15.05;;
58528;SDS011;44322;52.968;5.816;2024-01-10T07:12:55;17.10;;;14.18;;
58528;SDS011;44322;52.968;5.816;2024-01-10T07:15:21;18.55;;;14.80;;
58528;SDS011;44322;52.968;5.816;2024-01-10T07:17:48;20.73;;;15.98;;
58528;SDS011;44322;52.968;5.816;2024-01-10T07:20:13;19.52;;;15.23;;
58528;SDS011;44322;52.968;5.816;2024-01-10T07:22:39;18.63;;;14.98;;
58528;SDS011;44322;52.968;5.816;2024-01-10T07:25:09;18.25;;;14.82;;
58528;SDS011;44322;52.968;5.816;2024-01-10T07:27:42;17.75;;;14.95;;
58528;SDS011;44322;52.968;5.816;2024-01-10T07:30:08;20.88;;;15.68;;
58528;SDS011;44322;52.968;5.816;2024-01-10T07:32:39;19.85;;;15.73;;
58528;SDS011;44322;52.968;5.816;2024-01-10T07:35:06;18.92;;;15.38;;
58528;SDS011;44322;52.968;5.816;2024-01-10T07:40:03;18.77;;;14.85;;
58528;SDS011;44322;52.968;5.816;2024-01-10T07:42:36;18.10;;;14.68;;
58528;SDS011;44322;52.968;5.816;2024-01-10T07:45:02;19.65;;;14.32;;
58528;SDS011;44322;52.968;5.816;2024-01-10T07:47:32;17.25;;;14.60;;
58528;SDS011;44322;52.968;5.816;2024-01-10T07:50:08;17.95;;;14.32;;
58528;SDS011;44322;52.968;5.816;2024-01-10T07:52:34;17.67;;;13.98;;
58528;SDS011;44322;52.968;5.816;2024-01-10T07:55:00;19.60;;;14.60;;
58528;SDS011;44322;52.968;5.816;2024-01-10T07:57:26;16.30;;;14.32;;
58528;SDS011;44322;52.968;5.816;2024-01-10T07:59:55;17.52;;;14.02;;
58528;SDS011;44322;52.968;5.816;2024-01-10T08:02:21;17.88;;;13.95;;
58528;SDS011;44322;52.968;5.816;2024-01-10T08:04:47;18.55;;;14.32;;
58528;SDS011;44322;52.968;5.816;2024-01-10T08:07:12;17.45;;;13.88;;
58528;SDS011;44322;52.968;5.816;2024-01-10T08:09:38;17.73;;;14.27;;
58528;SDS011;44322;52.968;5.816;2024-01-10T08:12:04;18.40;;;14.32;;
58528;SDS011;44322;52.968;5.816;2024-01-10T08:14:30;18.63;;;14.00;;
58528;SDS011;44322;52.968;5.816;2024-01-10T08:16:55;18.85;;;14.85;;
58528;SDS011;44322;52.968;5.816;2024-01-10T08:19:23;18.83;;;15.40;;
58528;SDS011;44322;52.968;5.816;2024-01-10T08:21:51;17.98;;;14.38;;
58528;SDS011;44322;52.968;5.816;2024-01-10T08:24:18;18.05;;;14.70;;
58528;SDS011;44322;52.968;5.816;2024-01-10T08:26:44;16.23;;;13.98;;
58528;SDS011;44322;52.968;5.816;2024-01-10T08:29:10;18.20;;;14.90;;
58528;SDS011;44322;52.968;5.816;2024-01-10T08:31:35;17.88;;;14.75;;
58528;SDS011;44322;52.968;5.816;2024-01-10T08:34:01;16.70;;;14.38;;
58528;SDS011;44322;52.968;5.816;2024-01-10T08:36:28;18.55;;;15.10;;
58528;SDS011;44322;52.968;5.816;2024-01-10T08:38:53;17.40;;;15.13;;
58528;SDS011;44322;52.968;5.816;2024-01-10T08:41:19;19.33;;;15.13;;
58528;SDS011;44322;52.968;5.816;2024-01-10T08:43:46;20.73;;;14.77;;
58528;SDS011;44322;52.968;5.816;2024-01-10T08:46:12;17.52;;;14.63;;
58528;SDS011;44322;52.968;5.816;2024-01-10T08:48:37;18.35;;;15.55;;
58528;SDS011;44322;52.968;5.816;2024-01-10T08:51:03;18.95;;;15.45;;
58528;SDS011;44322;52.968;5.816;2024-01-10T08:53:29;19.65;;;16.40;;
58528;SDS011;44322;52.968;5.816;2024-01-10T08:55:54;19.42;;;15.75;;
58528;SDS011;44322;52.968;5.816;2024-01-10T08:58:20;20.20;;;16.00;;
58528;SDS011;44322;52.968;5.816;2024-01-10T09:00:46;18.70;;;15.60;;
58528;SDS011;44322;52.968;5.816;2024-01-10T09:03:11;18.90;;;15.27;;
58528;SDS011;44322;52.968;5.816;2024-01-10T09:05:40;20.00;;;16.05;;
58528;SDS011;44322;52.968;5.816;2024-01-10T09:08:05;19.20;;;15.40;;
58528;SDS011;44322;52.968;5.816;2024-01-10T09:10:31;18.75;;;15.23;;
58528;SDS011;44322;52.968;5.816;2024-01-10T09:13:00;19.85;;;15.93;;
58528;SDS011;44322;52.968;5.816;2024-01-10T09:15:28;18.02;;;15.25;;
58528;SDS011;44322;52.968;5.816;2024-01-10T09:17:56;20.75;;;16.55;;
58528;SDS011;44322;52.968;5.816;2024-01-10T09:20:22;19.52;;;16.30;;
58528;SDS011;44322;52.968;5.816;2024-01-10T09:22:54;19.42;;;15.30;;
58528;SDS011;44322;52.968;5.816;2024-01-10T09:25:20;19.42;;;15.65;;
58528;SDS011;44322;52.968;5.816;2024-01-10T09:27:45;19.73;;;15.25;;
58528;SDS011;44322;52.968;5.816;2024-01-10T09:30:12;18.95;;;15.75;;
58528;SDS011;44322;52.968;5.816;2024-01-10T09:32:38;18.92;;;15.40;;
58528;SDS011;44322;52.968;5.816;2024-01-10T09:35:04;19.40;;;15.40;;
58528;SDS011;44322;52.968;5.816;2024-01-10T09:37:30;19.85;;;15.23;;
58528;SDS011;44322;52.968;5.816;2024-01-10T09:39:55;19.42;;;15.43;;
58528;SDS011;44322;52.968;5.816;2024-01-10T09:42:21;19.38;;;15.18;;
58528;SDS011;44322;52.968;5.816;2024-01-10T09:44:50;19.23;;;15.05;;
58528;SDS011;44322;52.968;5.816;2024-01-10T09:47:16;20.45;;;15.43;;
58528;SDS011;44322;52.968;5.816;2024-01-10T09:49:43;20.10;;;15.30;;
58528;SDS011;44322;52.968;5.816;2024-01-10T09:52:11;18.92;;;14.57;;
58528;SDS011;44322;52.968;5.816;2024-01-10T09:54:42;18.40;;;14.38;;
58528;SDS011;44322;52.968;5.816;2024-01-10T09:57:10;19.80;;;14.70;;
58528;SDS011;44322;52.968;5.816;2024-01-10T09:59:36;20.05;;;14.45;;
58528;SDS011;44322;52.968;5.816;2024-01-10T10:02:01;20.58;;;14.88;;
58528;SDS011;44322;52.968;5.816;2024-01-10T10:04:29;20.63;;;14.02;;
58528;SDS011;44322;52.968;5.816;2024-01-10T10:07:02;20.63;;;14.30;;
58528;SDS011;44322;52.968;5.816;2024-01-10T10:09:28;21.00;;;14.57;;
58528;SDS011;44322;52.968;5.816;2024-01-10T10:11:55;20.13;;;14.48;;
58528;SDS011;44322;52.968;5.816;2024-01-10T10:14:20;18.00;;;13.45;;
58528;SDS011;44322;52.968;5.816;2024-01-10T10:16:47;18.35;;;13.82;;
58528;SDS011;44322;52.968;5.816;2024-01-10T10:19:13;21.33;;;13.93;;
58528;SDS011;44322;52.968;5.816;2024-01-10T10:21:48;19.23;;;13.35;;
58528;SDS011;44322;52.968;5.816;2024-01-10T10:24:13;19.33;;;13.52;;
58528;SDS011;44322;52.968;5.816;2024-01-10T10:26:39;18.15;;;12.93;;
58528;SDS011;44322;52.968;5.816;2024-01-10T10:29:06;19.13;;;13.10;;
58528;SDS011;44322;52.968;5.816;2024-01-10T10:31:32;18.88;;;12.43;;
58528;SDS011;44322;52.968;5.816;2024-01-10T10:33:59;20.42;;;13.07;;
58528;SDS011;44322;52.968;5.816;2024-01-10T10:36:25;17.77;;;12.05;;
58528;SDS011;44322;52.968;5.816;2024-01-10T10:38:52;18.45;;;12.95;;
58528;SDS011;44322;52.968;5.816;2024-01-10T10:41:18;18.73;;;12.48;;
58528;SDS011;44322;52.968;5.816;2024-01-10T10:43:44;18.42;;;12.00;;
58528;SDS011;44322;52.968;5.816;2024-01-10T10:46:10;21.30;;;12.60;;
58528;SDS011;44322;52.968;5.816;2024-01-10T10:48:37;17.43;;;12.00;;
58528;SDS011;44322;52.968;5.816;2024-01-10T10:51:07;18.13;;;12.60;;
58528;SDS011;44322;52.968;5.816;2024-01-10T10:53:34;17.70;;;11.80;;
58528;SDS011;44322;52.968;5.816;2024-01-10T10:56:05;17.80;;;11.75;;
58528;SDS011;44322;52.968;5.816;2024-01-10T10:58:33;18.38;;;11.82;;
58528;SDS011;44322;52.968;5.816;2024-01-10T11:01:10;19.95;;;11.73;;
58528;SDS011;44322;52.968;5.816;2024-01-10T11:03:37;18.10;;;11.38;;
58528;SDS011;44322;52.968;5.816;2024-01-10T11:06:05;17.42;;;11.48;;
58528;SDS011;44322;52.968;5.816;2024-01-10T11:08:34;17.85;;;11.60;;
58528;SDS011;44322;52.968;5.816;2024-01-10T11:11:02;17.75;;;11.40;;
58528;SDS011;44322;52.968;5.816;2024-01-10T11:16:38;15.93;;;10.75;;
58528;SDS011;44322;52.968;5.816;2024-01-10T11:24:40;16.05;;;10.32;;
58528;SDS011;44322;52.968;5.816;2024-01-10T11:27:07;16.33;;;10.68;;
58528;SDS011;44322;52.968;5.816;2024-01-10T11:29:37;15.73;;;9.82;;
58528;SDS011;44322;52.968;5.816;2024-01-10T11:32:06;15.15;;;9.68;;
58528;SDS011;44322;52.968;5.816;2024-01-10T11:34:35;16.63;;;10.82;;
58528;SDS011;44322;52.968;5.816;2024-01-10T11:37:10;15.05;;;9.73;;
58528;SDS011;44322;52.968;5.816;2024-01-10T11:42:09;16.83;;;10.73;;
58528;SDS011;44322;52.968;5.816;2024-01-10T11:44:34;16.20;;;10.25;;
58528;SDS011;44322;52.968;5.816;2024-01-10T11:47:12;14.57;;;10.25;;
58528;SDS011;44322;52.968;5.816;2024-01-10T11:49:40;16.48;;;10.73;;
58528;SDS011;44322;52.968;5.816;2024-01-10T11:52:05;15.40;;;10.27;;
58528;SDS011;44322;52.968;5.816;2024-01-10T11:54:34;15.50;;;9.63;;
58528;SDS011;44322;52.968;5.816;2024-01-10T11:57:23;14.98;;;9.48;;
58528;SDS011;44322;52.968;5.816;2024-01-10T11:59:56;15.13;;;9.85;;
58528;SDS011;44322;52.968;5.816;2024-01-10T12:02:22;15.10;;;9.82;;
58528;SDS011;44322;52.968;5.816;2024-01-10T12:04:50;15.38;;;9.88;;
58528;SDS011;44322;52.968;5.816;2024-01-10T12:07:16;14.98;;;9.68;;
58528;SDS011;44322;52.968;5.816;2024-01-10T12:09:43;14.82;;;9.75;;
58528;SDS011;44322;52.968;5.816;2024-01-10T12:12:09;13.98;;;9.05;;
58528;SDS011;44322;52.968;5.816;2024-01-10T12:17:03;14.55;;;9.85;;
58528;SDS011;44322;52.968;5.816;2024-01-10T12:19:30;15.45;;;9.93;;
58528;SDS011;44322;52.968;5.816;2024-01-10T12:21:55;13.93;;;9.05;;
58528;SDS011;44322;52.968;5.816;2024-01-10T12:24:21;17.55;;;9.73;;
58528;SDS011;44322;52.968;5.816;2024-01-10T12:26:47;15.20;;;9.43;;
58528;SDS011;44322;52.968;5.816;2024-01-10T12:29:13;14.43;;;9.32;;
58528;SDS011;44322;52.968;5.816;2024-01-10T12:31:42;14.50;;;9.15;;
58528;SDS011;44322;52.968;5.816;2024-01-10T12:34:10;14.35;;;9.27;;
58528;SDS011;44322;52.968;5.816;2024-01-10T12:36:36;13.68;;;9.50;;
58528;SDS011;44322;52.968;5.816;2024-01-10T12:39:02;13.27;;;8.48;;
58528;SDS011;44322;52.968;5.816;2024-01-10T12:41:28;13.82;;;8.48;;
58528;SDS011;44322;52.968;5.816;2024-01-10T12:43:53;14.05;;;8.85;;
58528;SDS011;44322;52.968;5.816;2024-01-10T12:46:20;13.77;;;8.95;;
58528;SDS011;44322;52.968;5.816;2024-01-10T12:48:49;16.48;;;9.85;;
58528;SDS011;44322;52.968;5.816;2024-01-10T12:51:32;13.48;;;8.98;;
58528;SDS011;44322;52.968;5.816;2024-01-10T12:53:59;12.98;;;8.90;;
58528;SDS011;44322;52.968;5.816;2024-01-10T12:56:25;14.07;;;8.75;;
58528;SDS011;44322;52.968;5.816;2024-01-10T12:58:52;12.77;;;8.63;;
58528;SDS011;44322;52.968;5.816;2024-01-10T13:01:18;13.63;;;8.90;;
58528;SDS011;44322;52.968;5.816;2024-01-10T13:03:43;13.68;;;8.77;;
58528;SDS011;44322;52.968;5.816;2024-01-10T13:06:09;13.50;;;8.88;;
58528;SDS011;44322;52.968;5.816;2024-01-10T13:08:36;13.82;;;8.82;;
58528;SDS011;44322;52.968;5.816;2024-01-10T13:11:02;12.82;;;8.68;;
58528;SDS011;44322;52.968;5.816;2024-01-10T13:13:36;13.30;;;8.52;;
58528;SDS011;44322;52.968;5.816;2024-01-10T13:16:02;13.18;;;8.77;;
58528;SDS011;44322;52.968;5.816;2024-01-10T13:18:28;13.57;;;8.82;;
58528;SDS011;44322;52.968;5.816;2024-01-10T13:20:54;13.32;;;8.63;;
58528;SDS011;44322;52.968;5.816;2024-01-10T13:23:20;15.65;;;9.38;;
58528;SDS011;44322;52.968;5.816;2024-01-10T13:25:49;14.85;;;9.77;;
58528;SDS011;44322;52.968;5.816;2024-01-10T13:28:15;15.02;;;10.30;;
58528;SDS011;44322;52.968;5.816;2024-01-10T13:30:41;16.20;;;9.88;;
58528;SDS011;44322;52.968;5.816;2024-01-10T13:33:08;14.45;;;9.38;;
58528;SDS011;44322;52.968;5.816;2024-01-10T13:35:37;14.30;;;9.65;;
58528;SDS011;44322;52.968;5.816;2024-01-10T13:38:03;16.15;;;10.02;;
58528;SDS011;44322;52.968;5.816;2024-01-10T13:40:30;13.98;;;9.20;;
58528;SDS011;44322;52.968;5.816;2024-01-10T13:42:57;16.02;;;9.75;;
58528;SDS011;44322;52.968;5.816;2024-01-10T13:45:22;14.70;;;9.50;;
58528;SDS011;44322;52.968;5.816;2024-01-10T13:47:48;17.70;;;10.05;;
58528;SDS011;44322;52.968;5.816;2024-01-10T13:52:42;14.60;;;10.15;;
58528;SDS011;44322;52.968;5.816;2024-01-10T13:55:08;14.77;;;9.57;;
58528;SDS011;44322;52.968;5.816;2024-01-10T13:57:36;14.63;;;10.27;;
58528;SDS011;44322;52.968;5.816;2024-01-10T14:00:02;13.48;;;9.15;;
58528;SDS011;44322;52.968;5.816;2024-01-10T14:02:37;14.77;;;9.13;;
58528;SDS011;44322;52.968;5.816;2024-01-10T14:05:02;14.88;;;9.90;;
58528;SDS011;44322;52.968;5.816;2024-01-10T14:09:57;13.75;;;9.55;;
58528;SDS011;44322;52.968;5.816;2024-01-10T14:12:23;14.70;;;9.80;;
58528;SDS011;44322;52.968;5.816;2024-01-10T14:14:49;15.13;;;9.68;;
58528;SDS011;44322;52.968;5.816;2024-01-10T14:17:15;15.63;;;9.73;;
58528;SDS011;44322;52.968;5.816;2024-01-10T14:19:41;16.33;;;10.02;;
58528;SDS011;44322;52.968;5.816;2024-01-10T14:22:08;14.10;;;9.70;;
58528;SDS011;44322;52.968;5.816;2024-01-10T14:24:37;15.50;;;10.13;;
58528;SDS011;44322;52.968;5.816;2024-01-10T14:27:03;15.98;;;9.98;;
58528;SDS011;44322;52.968;5.816;2024-01-10T14:29:29;16.40;;;10.05;;
58528;SDS011;44322;52.968;5.816;2024-01-10T14:31:55;15.30;;;10.20;;
58528;SDS011;44322;52.968;5.816;2024-01-10T14:34:20;17.38;;;10.93;;
58528;SDS011;44322;52.968;5.816;2024-01-10T14:36:46;15.68;;;10.65;;
58528;SDS011;44322;52.968;5.816;2024-01-10T14:39:12;16.02;;;10.13;;
58528;SDS011;44322;52.968;5.816;2024-01-10T14:41:38;16.92;;;10.75;;